Time;durP1;ratioP1;P1;durP2;ratioP2;P2;SDS_P1;SDS_P2;PMS_P1;PMS_P2;Temp;Humidity;BMP_temperature;BMP_pressure;BME280_temperature;BME280_humidity;BME280_pressure;Samples;Min_cycle;Max_cycle;Signal;HPM_P1;HPM_P2
2023/08/20 00:01:45;;;;;;;2.30;2.10;;;23.50;66.90;;;;;;5052198;28;20217;-57
2023/08/20 00:04:11;;;;;;;2.58;2.28;;;23.40;66.90;;;;;;5051942;28;20179;-58
2023/08/20 00:06:36;;;;;;;2.83;2.00;;;23.40;66.80;;;;;;5051039;28;20185;-58
2023/08/20 00:09:03;;;;;;;3.00;2.45;;;23.50;67.00;;;;;;5052914;28;20520;-57
2023/08/20 00:11:29;;;;;;;4.03;2.50;;;23.40;66.80;;;;;;5052882;28;20178;-57
2023/08/20 00:13:55;;;;;;;5.18;2.33;;;23.40;66.80;;;;;;5051720;28;20175;-57
2023/08/20 00:16:20;;;;;;;2.22;2.03;;;23.40;66.80;;;;;;5052355;28;20568;-57
2023/08/20 00:18:46;;;;;;;3.20;2.58;;;23.40;66.90;;;;;;5052810;28;20186;-58
2023/08/20 00:21:13;;;;;;;2.72;2.17;;;23.40;66.80;;;;;;5051554;28;20673;-58
2023/08/20 00:23:39;;;;;;;2.50;2.30;;;23.50;66.90;;;;;;5051830;28;20229;-58
2023/08/20 00:26:05;;;;;;;3.33;2.28;;;23.40;66.80;;;;;;5052568;28;20179;-57
2023/08/20 00:28:33;;;;;;;3.20;2.60;;;23.40;66.80;;;;;;5051924;28;20175;-57
2023/08/20 00:30:58;;;;;;;2.28;1.92;;;23.40;66.80;;;;;;5052264;28;20179;-57
2023/08/20 00:33:24;;;;;;;2.78;2.15;;;23.40;66.90;;;;;;5052214;28;20513;-55
2023/08/20 00:35:49;;;;;;;3.22;2.40;;;23.40;66.90;;;;;;5051497;28;20645;-58
2023/08/20 00:38:15;;;;;;;4.47;2.50;;;23.40;66.90;;;;;;5052229;28;20171;-57
2023/08/20 00:40:40;;;;;;;3.22;2.38;;;23.40;66.90;;;;;;5052258;28;20210;-58
2023/08/20 00:43:06;;;;;;;2.33;2.13;;;23.40;67.00;;;;;;5051530;28;20230;-58
2023/08/20 00:45:32;;;;;;;2.35;1.98;;;23.40;67.00;;;;;;5051796;28;20215;-58
2023/08/20 00:47:57;;;;;;;2.50;2.30;;;23.40;66.90;;;;;;5052388;28;20183;-57
2023/08/20 00:50:23;;;;;;;3.08;2.10;;;23.40;66.90;;;;;;5050898;28;20238;-57
2023/08/20 00:52:48;;;;;;;3.45;2.10;;;23.40;67.70;;;;;;5052417;28;20563;-57
2023/08/20 00:55:14;;;;;;;2.55;2.22;;;23.30;66.80;;;;;;5050179;28;20662;-57
2023/08/20 00:57:39;;;;;;;2.10;1.90;;;23.40;66.80;;;;;;5051305;28;20664;-58
2023/08/20 01:00:10;;;;;;;2.85;2.03;;;23.40;66.90;;;;;;5050759;28;20179;-57
2023/08/20 01:02:36;;;;;;;3.47;2.13;;;23.40;66.90;;;;;;5051194;28;20996;-57
2023/08/20 01:05:02;;;;;;;2.20;1.80;;;23.40;66.80;;;;;;5054111;28;20205;-58
2023/08/20 01:07:31;;;;;;;4.43;2.20;;;23.40;66.80;;;;;;5055497;28;20175;-58
2023/08/20 01:10:14;;;;;;;3.28;2.30;;;23.40;66.80;;;;;;5037115;28;20179;-58
2023/08/20 01:12:40;;;;;;;2.33;1.98;;;23.40;66.90;;;;;;5054343;28;20215;-57
2023/08/20 01:15:06;;;;;;;2.47;1.88;;;23.40;66.90;;;;;;5054099;28;20590;-61
2023/08/20 01:17:31;;;;;;;2.30;2.10;;;23.40;66.80;;;;;;5055386;28;20584;-58
2023/08/20 01:19:57;;;;;;;3.53;2.35;;;23.40;66.80;;;;;;5056199;28;20167;-58
2023/08/20 01:22:38;;;;;;;2.65;2.10;;;23.30;66.80;;;;;;5055743;28;20538;-58
2023/08/20 01:25:09;;;;;;;2.75;2.30;;;23.30;66.80;;;;;;5054095;28;20185;-58
2023/08/20 01:28:05;;;;;;;2.20;1.88;;;23.40;66.80;;;;;;5055035;28;20194;-56
2023/08/20 01:30:31;;;;;;;2.22;2.03;;;23.40;66.80;;;;;;5052629;28;20175;-58
2023/08/20 01:32:56;;;;;;;3.55;1.98;;;23.30;66.80;;;;;;5053184;28;20233;-57
2023/08/20 01:35:23;;;;;;;3.58;2.28;;;23.30;66.70;;;;;;5053626;28;20266;-58
2023/08/20 01:37:49;;;;;;;1.85;1.65;;;23.30;66.80;;;;;;5053385;28;20635;-57
2023/08/20 01:40:15;;;;;;;2.47;1.58;;;23.30;66.70;;;;;;5054768;28;20228;-58
2023/08/20 01:42:40;;;;;;;2.60;2.10;;;23.30;66.70;;;;;;5055142;28;20218;-58
2023/08/20 01:45:06;;;;;;;2.83;1.95;;;23.30;66.80;;;;;;5054070;28;20254;-58
2023/08/20 01:47:32;;;;;;;2.75;2.08;;;23.30;66.70;;;;;;5054906;28;20176;-58
2023/08/20 01:49:58;;;;;;;2.40;1.65;;;23.30;66.80;;;;;;5054764;28;20172;-58
2023/08/20 01:52:24;;;;;;;2.80;2.33;;;23.30;66.80;;;;;;5054489;28;20703;-58
2023/08/20 01:54:50;;;;;;;2.33;1.83;;;23.30;66.80;;;;;;5054688;28;20218;-58
2023/08/20 01:57:15;;;;;;;2.35;1.70;;;23.30;66.80;;;;;;5055023;28;20179;-57
2023/08/20 01:59:41;;;;;;;1.70;1.55;;;23.30;66.80;;;;;;5054137;28;20642;-56
2023/08/20 02:02:06;;;;;;;2.78;2.05;;;23.30;66.80;;;;;;5054576;28;20310;-58
2023/08/20 02:04:32;;;;;;;2.35;1.98;;;23.30;66.80;;;;;;5054440;28;20168;-58
2023/08/20 02:06:58;;;;;;;2.53;1.98;;;23.30;66.80;;;;;;5053910;28;20183;-58
2023/08/20 02:09:24;;;;;;;2.83;2.03;;;23.30;66.80;;;;;;5053873;28;20186;-58
2023/08/20 02:11:50;;;;;;;1.88;1.77;;;23.30;66.80;;;;;;5055205;28;20186;-58
2023/08/20 02:14:16;;;;;;;2.08;1.70;;;23.30;66.80;;;;;;5054078;28;20175;-58
2023/08/20 02:16:41;;;;;;;2.75;1.80;;;23.30;66.80;;;;;;5052514;28;20228;-58
2023/08/20 02:19:07;;;;;;;2.42;1.80;;;23.20;66.70;;;;;;5053895;28;20187;-58
2023/08/20 02:21:33;;;;;;;3.17;1.98;;;23.30;66.80;;;;;;5053909;28;20352;-58
2023/08/20 02:23:58;;;;;;;1.80;1.63;;;23.30;66.80;;;;;;5054356;28;20197;-58
2023/08/20 02:26:24;;;;;;;2.17;1.90;;;23.20;66.70;;;;;;5054448;28;20178;-58
2023/08/20 02:28:49;;;;;;;2.30;1.70;;;23.30;66.80;;;;;;5053625;28;20178;-54
2023/08/20 02:31:15;;;;;;;2.67;2.00;;;23.30;66.80;;;;;;5054248;28;20175;-58
2023/08/20 02:33:41;;;;;;;2.17;1.88;;;23.20;66.70;;;;;;5054234;28;20167;-58
2023/08/20 02:36:06;;;;;;;2.17;1.90;;;23.20;66.70;;;;;;5053516;28;20333;-58
2023/08/20 02:38:32;;;;;;;2.78;1.98;;;23.20;66.70;;;;;;5054133;28;20179;-58
2023/08/20 02:40:57;;;;;;;2.03;1.90;;;23.20;66.70;;;;;;5053699;28;20297;-58
2023/08/20 02:43:23;;;;;;;2.03;1.52;;;23.20;66.70;;;;;;5054125;28;20653;-58
2023/08/20 02:45:49;;;;;;;1.80;1.70;;;23.20;66.60;;;;;;5053785;28;20222;-58
2023/08/20 02:48:14;;;;;;;1.95;1.77;;;23.20;66.60;;;;;;5053126;28;20727;-58
2023/08/20 02:50:40;;;;;;;2.88;1.70;;;23.20;66.70;;;;;;5054318;28;20218;-58
2023/08/20 02:53:06;;;;;;;2.13;1.48;;;23.20;66.70;;;;;;5053746;28;20176;-57
2023/08/20 02:55:31;;;;;;;1.65;1.50;;;23.20;66.60;;;;;;5052947;28;20263;-58
2023/08/20 02:57:57;;;;;;;2.78;2.03;;;23.20;66.60;;;;;;5053510;28;20653;-58
2023/08/20 03:00:23;;;;;;;1.65;1.52;;;23.20;66.60;;;;;;5053725;28;20273;-58
2023/08/20 03:02:48;;;;;;;1.80;1.60;;;23.20;66.60;;;;;;5053311;28;20542;-58
2023/08/20 03:05:14;;;;;;;2.05;1.65;;;23.20;66.60;;;;;;5053501;28;20255;-58
2023/08/20 03:07:40;;;;;;;2.58;1.80;;;23.20;66.60;;;;;;5053190;28;20633;-58
2023/08/20 03:10:06;;;;;;;3.40;2.33;;;23.20;66.60;;;;;;5052288;28;20577;-58
2023/08/20 03:12:31;;;;;;;2.22;1.95;;;23.20;66.60;;;;;;5053629;28;20641;-57
2023/08/20 03:14:57;;;;;;;1.83;1.73;;;23.20;66.60;;;;;;5052577;28;20182;-58
2023/08/20 03:17:23;;;;;;;2.67;1.85;;;23.10;66.50;;;;;;5052267;28;20194;-58
2023/08/20 03:19:58;;;;;;;2.42;1.92;;;23.20;66.60;;;;;;5053579;28;20175;-58
2023/08/20 03:22:24;;;;;;;2.17;1.95;;;23.20;66.60;;;;;;5053581;28;20305;-58
2023/08/20 03:24:50;;;;;;;1.70;1.60;;;23.10;66.50;;;;;;5052996;28;20254;-58
2023/08/20 03:27:16;;;;;;;3.38;1.90;;;23.20;66.50;;;;;;5052836;28;20171;-57
2023/08/20 03:29:41;;;;;;;2.08;1.88;;;23.20;66.50;;;;;;5053637;28;20176;-57
2023/08/20 03:32:07;;;;;;;2.38;1.48;;;23.10;66.40;;;;;;5052410;28;20199;-58
2023/08/20 03:34:32;;;;;;;2.33;1.90;;;23.20;66.80;;;;;;5053342;28;20171;-58
2023/08/20 03:36:58;;;;;;;2.60;1.60;;;23.10;66.40;;;;;;5052362;28;20197;-58
2023/08/20 03:39:23;;;;;;;1.70;1.60;;;23.10;66.40;;;;;;5052531;28;20179;-58
2023/08/20 03:41:50;;;;;;;1.73;1.55;;;23.10;66.40;;;;;;5053020;28;20302;-58
2023/08/20 03:44:15;;;;;;;2.28;1.90;;;23.10;66.40;;;;;;5051855;28;20178;-58
2023/08/20 03:46:41;;;;;;;1.85;1.60;;;23.10;66.40;;;;;;5052902;28;20183;-58
2023/08/20 03:49:06;;;;;;;3.05;1.80;;;23.10;66.40;;;;;;5052835;28;20276;-58
2023/08/20 03:51:32;;;;;;;2.75;1.98;;;23.10;66.40;;;;;;5052362;28;20175;-58
2023/08/20 03:53:58;;;;;;;2.92;1.73;;;23.10;66.40;;;;;;5053075;28;20186;-57
2023/08/20 03:56:23;;;;;;;1.70;1.60;;;23.10;67.20;;;;;;5052631;28;20205;-58
2023/08/20 03:58:49;;;;;;;2.10;1.50;;;23.10;66.30;;;;;;5052405;28;20571;-58
2023/08/20 04:01:14;;;;;;;2.53;1.90;;;23.10;66.30;;;;;;5052690;28;20242;-58
2023/08/20 04:03:40;;;;;;;2.45;1.55;;;23.10;66.30;;;;;;5052886;28;20171;-58
2023/08/20 04:06:06;;;;;;;1.77;1.60;;;23.10;66.30;;;;;;5051302;28;20175;-58
2023/08/20 04:08:32;;;;;;;2.53;1.85;;;23.10;66.30;;;;;;5052371;28;20171;-57
2023/08/20 04:10:57;;;;;;;2.25;1.95;;;23.10;66.30;;;;;;5052880;28;20254;-58
2023/08/20 04:13:23;;;;;;;1.70;1.60;;;23.10;66.30;;;;;;5051963;28;20171;-58
2023/08/20 04:15:48;;;;;;;1.70;1.60;;;23.10;66.20;;;;;;5050862;28;20179;-57
2023/08/20 04:18:14;;;;;;;3.88;2.05;;;23.10;66.20;;;;;;5051063;28;20175;-61
2023/08/20 04:20:40;;;;;;;2.00;1.40;;;23.10;67.10;;;;;;5050851;28;20238;-58
2023/08/20 04:23:05;;;;;;;1.70;1.60;;;23.10;66.20;;;;;;5052176;28;20178;-57
2023/08/20 04:25:31;;;;;;;2.42;1.77;;;23.10;66.20;;;;;;5052528;28;20269;-57
2023/08/20 04:27:56;;;;;;;2.08;1.98;;;23.10;66.20;;;;;;5052197;28;20199;-53
2023/08/20 04:30:22;;;;;;;2.22;1.90;;;23.10;66.20;;;;;;5052466;28;20984;-56
2023/08/20 04:32:48;;;;;;;2.28;1.70;;;23.10;66.20;;;;;;5052411;28;20167;-57
2023/08/20 04:35:13;;;;;;;2.47;1.73;;;23.10;66.10;;;;;;5051262;28;20269;-57
2023/08/20 04:37:39;;;;;;;2.38;2.17;;;23.00;66.90;;;;;;5052776;28;20209;-57
2023/08/20 04:40:05;;;;;;;3.03;1.70;;;23.00;66.00;;;;;;5054819;28;20179;-58
2023/08/20 04:42:31;;;;;;;4.20;1.60;;;23.00;66.00;;;;;;5055598;28;20604;-57
2023/08/20 04:44:57;;;;;;;1.63;1.52;;;23.00;66.00;;;;;;5055142;28;20293;-58
2023/08/20 04:47:22;;;;;;;2.47;1.98;;;23.00;66.00;;;;;;5055727;28;20265;-58
2023/08/20 04:49:48;;;;;;;1.90;1.70;;;23.10;66.10;;;;;;5056351;28;20175;-57
2023/08/20 04:52:13;;;;;;;2.03;1.75;;;23.00;66.00;;;;;;5055911;28;20206;-57
2023/08/20 04:54:39;;;;;;;1.73;1.63;;;23.00;66.00;;;;;;5055565;28;20186;-58
2023/08/20 04:57:05;;;;;;;2.13;1.85;;;23.00;66.00;;;;;;5055830;28;20248;-57
2023/08/20 04:59:30;;;;;;;1.98;1.67;;;23.00;65.90;;;;;;5056443;28;20313;-57
2023/08/20 05:01:56;;;;;;;2.25;1.90;;;23.00;65.90;;;;;;5055323;28;20632;-58
2023/08/20 05:04:21;;;;;;;2.90;2.00;;;23.00;66.00;;;;;;5055176;28;20175;-59
2023/08/20 05:06:47;;;;;;;2.03;1.90;;;23.00;66.00;;;;;;5055973;28;20171;-58
2023/08/20 05:09:12;;;;;;;1.92;1.77;;;23.00;65.90;;;;;;5055315;28;20626;-58
2023/08/20 05:11:38;;;;;;;2.28;1.88;;;23.00;65.90;;;;;;5056144;28;20194;-58
2023/08/20 05:14:04;;;;;;;2.50;1.90;;;23.00;65.90;;;;;;5055890;28;20511;-58
2023/08/20 05:16:29;;;;;;;1.92;1.80;;;23.00;65.90;;;;;;5053980;28;20604;-58
2023/08/20 05:18:55;;;;;;;1.75;1.60;;;23.00;66.00;;;;;;5055773;28;20203;-59
2023/08/20 05:21:20;;;;;;;2.00;1.80;;;23.00;65.90;;;;;;5055713;28;20214;-59
2023/08/20 05:23:48;;;;;;;2.53;1.92;;;23.00;65.90;;;;;;5055131;28;20167;-60
2023/08/20 05:26:14;;;;;;;1.90;1.70;;;23.00;66.00;;;;;;5054736;28;20214;-59
2023/08/20 05:28:39;;;;;;;2.25;1.85;;;23.00;65.90;;;;;;5054748;28;20175;-59
2023/08/20 05:31:05;;;;;;;1.80;1.70;;;23.00;66.00;;;;;;5054083;28;20175;-58
2023/08/20 05:33:30;;;;;;;2.47;1.67;;;23.00;66.00;;;;;;5055375;28;20168;-58
2023/08/20 05:35:56;;;;;;;1.95;1.83;;;23.00;66.00;;;;;;5055285;28;20179;-57
2023/08/20 05:38:21;;;;;;;2.38;1.88;;;23.00;66.10;;;;;;5054384;28;20202;-59
2023/08/20 05:40:47;;;;;;;2.10;1.65;;;23.00;66.10;;;;;;5055699;28;20209;-59
2023/08/20 05:43:13;;;;;;;1.80;1.70;;;23.00;66.00;;;;;;5055233;28;20744;-59
2023/08/20 05:45:38;;;;;;;2.65;1.80;;;23.00;66.10;;;;;;5054302;28;20222;-59
2023/08/20 05:48:04;;;;;;;2.05;1.85;;;23.00;66.10;;;;;;5055160;28;20665;-58
2023/08/20 05:50:29;;;;;;;1.65;1.50;;;23.00;66.10;;;;;;5055513;28;20529;-58
2023/08/20 05:52:55;;;;;;;1.50;1.40;;;23.00;66.10;;;;;;5054338;28;20202;-58
2023/08/20 05:55:20;;;;;;;2.08;1.83;;;23.00;66.10;;;;;;5054332;28;20221;-59
2023/08/20 05:57:46;;;;;;;2.35;1.70;;;23.00;66.10;;;;;;5054608;28;20179;-58
2023/08/20 06:00:12;;;;;;;2.72;1.85;;;23.10;66.10;;;;;;5054780;28;20175;-58
2023/08/20 06:02:37;;;;;;;2.63;1.67;;;23.00;66.00;;;;;;5054485;28;20203;-58
2023/08/20 06:05:07;;;;;;;2.40;1.70;;;23.10;66.10;;;;;;5053471;28;20646;-59
2023/08/20 06:07:33;;;;;;;2.05;1.80;;;23.00;66.00;;;;;;5055398;28;20190;-58
2023/08/20 06:09:59;;;;;;;1.60;1.50;;;23.10;66.10;;;;;;5054857;28;20171;-58
2023/08/20 06:12:24;;;;;;;1.95;1.80;;;23.10;66.80;;;;;;5054225;28;20652;-58
2023/08/20 06:14:50;;;;;;;1.70;1.60;;;23.10;66.00;;;;;;5054630;28;20545;-58
2023/08/20 06:17:15;;;;;;;2.42;1.80;;;23.10;66.10;;;;;;5054678;28;20175;-58
2023/08/20 06:19:41;;;;;;;1.85;1.70;;;23.10;66.80;;;;;;5054062;28;20211;-58
2023/08/20 06:22:06;;;;;;;2.47;1.73;;;23.10;66.00;;;;;;5054316;28;20227;-58
2023/08/20 06:24:32;;;;;;;2.47;1.90;;;23.10;66.00;;;;;;5054697;28;20178;-57
2023/08/20 06:26:58;;;;;;;2.00;1.80;;;23.10;66.00;;;;;;5053690;28;20175;-58
2023/08/20 06:29:23;;;;;;;2.00;1.60;;;23.10;65.90;;;;;;5054721;28;20175;-59
2023/08/20 06:31:50;;;;;;;2.70;1.85;;;23.10;66.70;;;;;;5053795;28;20266;-58
2023/08/20 06:34:15;;;;;;;1.70;1.60;;;23.10;66.80;;;;;;5052952;28;20179;-58
2023/08/20 06:36:41;;;;;;;2.00;1.60;;;23.10;65.90;;;;;;5053515;28;20630;-58
2023/08/20 06:39:06;;;;;;;2.13;1.77;;;23.20;65.90;;;;;;5054279;28;20175;-58
2023/08/20 06:41:32;;;;;;;2.00;1.90;;;23.10;65.80;;;;;;5053634;28;20312;-58
2023/08/20 06:43:57;;;;;;;2.58;1.60;;;23.20;65.90;;;;;;5054051;28;20175;-57
2023/08/20 06:46:23;;;;;;;2.53;1.60;;;23.20;65.90;;;;;;5053407;28;20219;-56
2023/08/20 06:48:49;;;;;;;1.77;1.67;;;23.20;66.00;;;;;;5052820;28;20266;-54
2023/08/20 06:51:17;;;;;;;1.95;1.80;;;23.20;66.70;;;;;;5053562;28;20202;-54
2023/08/20 06:53:43;;;;;;;1.80;1.70;;;23.20;65.90;;;;;;5053844;28;20635;-53
2023/08/20 06:56:08;;;;;;;2.42;1.70;;;23.30;65.90;;;;;;5052396;28;20646;-54
2023/08/20 06:58:35;;;;;;;1.75;1.65;;;23.20;65.80;;;;;;5053222;28;20175;-54
2023/08/20 07:01:07;;;;;;;2.20;1.65;;;23.30;65.80;;;;;;5052356;28;20215;-54
2023/08/20 07:03:42;;;;;;;1.60;1.50;;;23.30;66.10;;;;;;5053664;28;20711;-53
2023/08/20 07:06:11;;;;;;;1.65;1.48;;;23.30;66.00;;;;;;5053267;28;20257;-55
2023/08/20 07:08:39;;;;;;;2.28;1.75;;;23.20;66.00;;;;;;5053334;28;20182;-54
2023/08/20 07:11:04;;;;;;;2.08;1.80;;;23.30;66.00;;;;;;5053629;28;20175;-55
2023/08/20 07:13:30;;;;;;;2.00;1.58;;;23.30;66.10;;;;;;5053810;28;20688;-49
2023/08/20 07:15:55;;;;;;;1.40;1.30;;;23.30;66.00;;;;;;5052565;28;20175;-50
2023/08/20 07:18:21;;;;;;;1.73;1.60;;;23.40;66.00;;;;;;5053476;28;20175;-54
2023/08/20 07:20:47;;;;;;;2.00;1.40;;;23.40;66.00;;;;;;5053645;28;20260;-54
2023/08/20 07:23:12;;;;;;;1.63;1.42;;;23.40;66.00;;;;;;5052605;28;20175;-55
2023/08/20 07:25:38;;;;;;;2.75;1.63;;;23.40;66.30;;;;;;5052928;28;20167;-55
2023/08/20 07:28:05;;;;;;;3.30;1.92;;;23.40;66.00;;;;;;5052875;28;20233;-50
2023/08/20 07:30:30;;;;;;;2.13;1.77;;;23.40;65.90;;;;;;5052790;28;20183;-52
2023/08/20 07:32:56;;;;;;;1.73;1.63;;;23.40;65.90;;;;;;5053636;28;20180;-55
2023/08/20 07:35:30;;;;;;;1.90;1.70;;;23.40;65.90;;;;;;5052846;28;20175;-54
2023/08/20 07:37:55;;;;;;;3.25;1.65;;;23.50;65.80;;;;;;5052841;28;20171;-55
2023/08/20 07:40:21;;;;;;;2.28;1.60;;;23.50;65.80;;;;;;5052984;28;20540;-56
2023/08/20 07:42:46;;;;;;;2.22;1.75;;;23.50;65.80;;;;;;5053111;28;20533;-55
2023/08/20 07:45:13;;;;;;;1.70;1.60;;;23.50;65.80;;;;;;5051875;28;20214;-55
2023/08/20 07:47:38;;;;;;;2.53;1.52;;;23.50;65.80;;;;;;5052461;28;20637;-54
2023/08/20 07:50:04;;;;;;;1.63;1.52;;;23.50;65.70;;;;;;5052412;28;20175;-55
2023/08/20 07:52:30;;;;;;;1.65;1.35;;;23.50;65.80;;;;;;5052209;28;20175;-54
2023/08/20 07:54:56;;;;;;;1.73;1.40;;;23.60;65.70;;;;;;5052601;28;20195;-53
2023/08/20 07:57:23;;;;;;;1.98;1.83;;;23.50;65.70;;;;;;5051489;28;20609;-53
2023/08/20 07:59:51;;;;;;;1.60;1.50;;;23.60;65.70;;;;;;5053148;28;20194;-55
2023/08/20 08:02:17;;;;;;;1.80;1.50;;;23.60;65.80;;;;;;5052544;28;20217;-54
2023/08/20 08:04:42;;;;;;;2.33;1.45;;;23.60;65.80;;;;;;5051718;28;20179;-53
2023/08/20 08:07:08;;;;;;;2.33;1.80;;;23.60;65.70;;;;;;5052323;28;20178;-54
2023/08/20 08:09:34;;;;;;;1.95;1.27;;;23.60;65.70;;;;;;5052919;28;20178;-54
2023/08/20 08:11:59;;;;;;;1.30;1.20;;;23.60;65.80;;;;;;5051607;28;20658;-50
2023/08/20 08:14:25;;;;;;;1.50;1.40;;;23.60;65.80;;;;;;5051012;28;20643;-54
2023/08/20 08:16:51;;;;;;;2.40;1.63;;;23.60;65.70;;;;;;5052276;28;20175;-53
2023/08/20 08:19:17;;;;;;;1.55;1.45;;;23.60;65.70;;;;;;5051110;28;20559;-54
2023/08/20 08:21:43;;;;;;;2.25;1.42;;;23.70;65.80;;;;;;5052751;28;20207;-54
2023/08/20 08:24:08;;;;;;;2.40;1.60;;;23.70;65.80;;;;;;5052577;28;20533;-51
2023/08/20 08:26:35;;;;;;;1.65;1.30;;;23.70;65.80;;;;;;5051340;28;20313;-52
2023/08/20 08:29:01;;;;;;;1.95;1.48;;;23.70;65.70;;;;;;5052693;28;20186;-55
2023/08/20 08:31:26;;;;;;;1.60;1.50;;;23.70;65.70;;;;;;5052588;28;20250;-53
2023/08/20 08:33:52;;;;;;;1.38;1.27;;;23.70;65.70;;;;;;5051654;28;20178;-57
2023/08/20 08:36:17;;;;;;;1.95;1.70;;;23.70;65.70;;;;;;5052453;28;20607;-57
2023/08/20 08:38:44;;;;;;;1.75;1.23;;;23.80;65.90;;;;;;5052790;28;20570;-56
2023/08/20 08:41:11;;;;;;;3.70;1.48;;;23.80;65.80;;;;;;5051287;28;20215;-54
2023/08/20 08:43:37;;;;;;;1.42;1.33;;;23.80;65.80;;;;;;5052208;28;20184;-53
2023/08/20 08:46:05;;;;;;;1.48;1.38;;;23.80;65.80;;;;;;5051377;28;20235;-54
2023/08/20 08:48:31;;;;;;;1.73;1.33;;;23.80;65.70;;;;;;5050258;28;20634;-55
2023/08/20 08:50:57;;;;;;;1.60;1.20;;;23.80;65.80;;;;;;5050390;28;20175;-53
2023/08/20 08:53:23;;;;;;;1.88;1.50;;;23.80;65.80;;;;;;5050828;28;20215;-53
2023/08/20 08:55:48;;;;;;;1.70;1.02;;;23.80;66.60;;;;;;5033517;28;20175;-55
2023/08/20 08:58:15;;;;;;;1.77;1.50;;;23.90;65.80;;;;;;5052267;28;20540;-54
2023/08/20 09:00:41;;;;;;;1.55;1.40;;;23.90;65.80;;;;;;5050647;28;20210;-56
2023/08/20 09:03:06;;;;;;;1.92;1.20;;;23.90;65.80;;;;;;5052135;28;20257;-53
2023/08/20 09:05:32;;;;;;;2.40;1.50;;;23.90;65.80;;;;;;5051884;28;20214;-56
2023/08/20 09:07:57;;;;;;;0.95;0.95;;;23.90;65.80;;;;;;5050850;28;20217;-57
2023/08/20 09:10:26;;;;;;;1.88;1.50;;;23.90;65.80;;;;;;5052192;28;20183;-54
2023/08/20 09:12:51;;;;;;;1.45;1.35;;;24.00;65.90;;;;;;5052066;28;20186;-54
2023/08/20 09:15:17;;;;;;;2.63;1.30;;;24.00;65.80;;;;;;5049038;28;20187;-55
2023/08/20 09:17:42;;;;;;;1.52;1.20;;;24.00;65.80;;;;;;5052087;28;20187;-52
2023/08/20 09:20:08;;;;;;;1.55;1.40;;;24.00;65.80;;;;;;5051852;28;20175;-51
2023/08/20 09:22:37;;;;;;;1.50;1.40;;;24.00;65.80;;;;;;5051179;28;20218;-56
2023/08/20 09:25:03;;;;;;;1.20;1.10;;;24.00;65.80;;;;;;5052241;28;20637;-54
2023/08/20 09:27:28;;;;;;;1.63;1.48;;;24.00;65.90;;;;;;5055328;28;20689;-54
2023/08/20 09:29:55;;;;;;;1.27;1.17;;;24.00;65.90;;;;;;5055152;28;20171;-55
2023/08/20 09:32:24;;;;;;;1.75;0.98;;;24.00;65.90;;;;;;5055393;28;20209;-55
2023/08/20 09:34:51;;;;;;;1.33;1.23;;;24.00;65.90;;;;;;5055193;28;20199;-55
2023/08/20 09:37:18;;;;;;;1.30;1.20;;;24.10;66.00;;;;;;5054657;28;20187;-56
2023/08/20 09:39:44;;;;;;;1.00;1.00;;;24.10;65.90;;;;;;5055371;28;20179;-57
2023/08/20 09:42:10;;;;;;;1.50;1.20;;;24.10;65.90;;;;;;5055076;28;20236;-54
2023/08/20 09:44:39;;;;;;;1.13;1.02;;;24.10;65.90;;;;;;5054257;28;20215;-56
2023/08/20 09:47:09;;;;;;;1.77;1.00;;;24.10;65.90;;;;;;5054982;28;20179;-55
2023/08/20 09:49:39;;;;;;;1.10;1.02;;;24.20;66.00;;;;;;5055259;28;20175;-54
2023/08/20 09:52:07;;;;;;;1.30;1.05;;;24.20;66.00;;;;;;5054020;28;20179;-52
2023/08/20 09:54:46;;;;;;;1.30;1.20;;;24.20;66.00;;;;;;5053850;28;20693;-53
2023/08/20 09:57:14;;;;;;;0.90;0.90;;;24.20;66.00;;;;;;5054024;28;20228;-54
2023/08/20 09:59:40;;;;;;;1.10;1.00;;;24.20;65.90;;;;;;5054193;28;20275;-54
2023/08/20 10:02:06;;;;;;;1.45;1.35;;;24.20;65.90;;;;;;5052967;28;20730;-53
2023/08/20 10:04:32;;;;;;;1.70;1.00;;;24.20;66.00;;;;;;5052375;28;20175;-54
2023/08/20 10:06:57;;;;;;;1.20;1.10;;;24.20;65.90;;;;;;5054853;28;20181;-54
2023/08/20 10:09:23;;;;;;;1.20;1.00;;;24.20;65.90;;;;;;5053842;28;20167;-55
2023/08/20 10:11:48;;;;;;;1.38;1.00;;;24.30;65.90;;;;;;5036374;28;20718;-53
2023/08/20 10:14:16;;;;;;;0.90;0.90;;;24.30;65.90;;;;;;5052605;28;20171;-50
2023/08/20 10:16:42;;;;;;;1.33;1.20;;;24.30;65.80;;;;;;5054304;28;20677;-54
2023/08/20 10:19:07;;;;;;;1.20;1.10;;;24.30;65.90;;;;;;5052378;28;20175;-56
2023/08/20 10:21:33;;;;;;;1.13;1.00;;;24.30;66.60;;;;;;5054949;28;20203;-56
2023/08/20 10:24:06;;;;;;;1.30;1.10;;;24.30;65.80;;;;;;5054024;28;20639;-53
2023/08/20 10:26:33;;;;;;;1.77;1.17;;;24.30;65.80;;;;;;5052914;28;20642;-53
2023/08/20 10:29:37;;;;;;;3.63;1.25;;;24.30;65.80;;;;;;5054039;28;20203;-55
2023/08/20 10:32:09;;;;;;;0.90;0.88;;;24.40;65.80;;;;;;5053708;28;20590;-53
2023/08/20 10:34:39;;;;;;;1.67;1.20;;;24.40;65.90;;;;;;5053243;28;20229;-57
2023/08/20 10:37:14;;;;;;;1.27;1.05;;;24.40;66.00;;;;;;5052940;28;20236;-58
2023/08/20 10:39:42;;;;;;;1.92;1.60;;;24.40;66.20;;;;;;5053428;28;20526;-58
2023/08/20 10:42:19;;;;;;;3.38;1.60;;;24.40;66.30;;;;;;5053948;28;20567;-58
2023/08/20 10:45:08;;;;;;;4.47;1.13;;;24.50;66.40;;;;;;5053799;28;20333;-59
2023/08/20 10:47:44;;;;;;;3.30;1.88;;;24.50;66.40;;;;;;5053703;28;20178;-58
2023/08/20 10:50:10;;;;;;;3.22;1.50;;;24.50;66.60;;;;;;5054028;28;20182;-57
2023/08/20 10:52:47;;;;;;;4.10;1.67;;;24.50;66.60;;;;;;5053639;28;20548;-57
2023/08/20 10:55:13;;;;;;;2.83;1.65;;;24.50;66.80;;;;;;5053440;28;20186;-56
2023/08/20 10:57:38;;;;;;;5.18;1.80;;;24.60;66.90;;;;;;5054175;28;20172;-58
2023/08/20 11:00:09;;;;;;;4.72;1.70;;;24.60;67.40;;;;;;5053514;28;20622;-58
2023/08/20 11:02:35;;;;;;;4.85;1.92;;;24.60;67.30;;;;;;5053516;28;20211;-58
2023/08/20 11:05:02;;;;;;;5.57;1.80;;;24.60;68.80;;;;;;5053714;28;20190;-58
2023/08/20 11:07:28;;;;;;;3.80;1.92;;;24.70;67.90;;;;;;5052977;28;20201;-58
2023/08/20 11:09:54;;;;;;;3.92;2.03;;;24.70;68.00;;;;;;5053801;28;20630;-58
2023/08/20 11:12:21;;;;;;;2.78;2.03;;;24.70;68.10;;;;;;5051826;28;20175;-58
2023/08/20 11:14:46;;;;;;;3.05;2.10;;;24.80;68.50;;;;;;5052984;28;20727;-58
2023/08/20 11:17:12;;;;;;;3.10;1.73;;;24.70;68.10;;;;;;5053090;28;20217;-59
2023/08/20 11:19:37;;;;;;;2.47;1.60;;;24.80;68.50;;;;;;5052303;28;20258;-59
2023/08/20 11:22:03;;;;;;;1.85;1.55;;;24.80;68.40;;;;;;5051963;28;20297;-58
2023/08/20 11:24:29;;;;;;;4.32;1.70;;;24.80;68.50;;;;;;5053571;28;20214;-59
2023/08/20 11:26:55;;;;;;;3.33;1.90;;;24.80;68.50;;;;;;5053476;28;20179;-58
2023/08/20 11:29:21;;;;;;;3.15;1.98;;;24.80;68.50;;;;;;5052406;28;20248;-58
2023/08/20 11:31:46;;;;;;;4.68;2.00;;;24.80;68.40;;;;;;5053402;28;20199;-58
2023/08/20 11:34:12;;;;;;;3.35;1.90;;;24.80;68.40;;;;;;5052848;28;20530;-57
2023/08/20 11:36:39;;;;;;;2.22;1.50;;;24.80;68.40;;;;;;5052649;28;20630;-58
2023/08/20 11:39:04;;;;;;;1.95;1.40;;;24.80;68.40;;;;;;5052993;28;20189;-59
2023/08/20 11:41:30;;;;;;;3.55;1.70;;;24.80;68.50;;;;;;5053431;28;20199;-59
2023/08/20 11:43:55;;;;;;;4.03;1.90;;;24.90;68.50;;;;;;5052322;28;20532;-59
2023/08/20 11:46:22;;;;;;;5.75;1.75;;;24.80;68.60;;;;;;5052501;28;20215;-58
2023/08/20 11:49:05;;;;;;;3.65;1.83;;;24.90;68.20;;;;;;5052349;28;20190;-58
2023/08/20 11:51:38;;;;;;;5.75;1.80;;;24.90;68.20;;;;;;5052041;28;20190;-58
2023/08/20 11:54:11;;;;;;;4.68;1.73;;;24.90;68.00;;;;;;5052383;28;20270;-58
2023/08/20 11:56:49;;;;;;;4.53;1.95;;;24.90;67.70;;;;;;5051047;28;20175;-58
2023/08/20 11:59:15;;;;;;;11.07;2.58;;;24.90;67.50;;;;;;5053055;28;20182;-58
2023/08/20 12:01:41;;;;;;;5.65;2.50;;;24.90;67.40;;;;;;5052643;28;20768;-59
2023/08/20 12:04:07;;;;;;;5.07;2.10;;;24.90;67.10;;;;;;5058334;28;20282;-58
2023/08/20 12:06:34;;;;;;;5.40;2.35;;;24.90;66.90;;;;;;5061517;28;20547;-58
2023/08/20 12:09:00;;;;;;;8.10;2.35;;;24.90;66.80;;;;;;5072866;28;20178;-58
2023/08/20 12:11:26;;;;;;;6.30;2.38;;;24.90;66.80;;;;;;5064955;28;20181;-58
2023/08/20 12:13:52;;;;;;;5.95;2.17;;;24.90;66.70;;;;;;5052642;28;20175;-58
2023/08/20 12:16:18;;;;;;;5.60;1.88;;;24.90;66.70;;;;;;5052652;28;20293;-58
2023/08/20 12:18:46;;;;;;;3.95;1.80;;;24.90;66.60;;;;;;5051735;28;20258;-58
2023/08/20 12:21:11;;;;;;;4.65;1.80;;;24.90;67.30;;;;;;5069496;28;20277;-59
2023/08/20 12:23:37;;;;;;;3.30;1.60;;;24.90;66.40;;;;;;5072876;28;20251;-59
2023/08/20 12:26:02;;;;;;;5.22;2.05;;;24.90;66.30;;;;;;5071753;28;20182;-58
2023/08/20 12:28:28;;;;;;;5.60;1.80;;;24.90;66.30;;;;;;5059989;28;20183;-57
2023/08/20 12:30:54;;;;;;;3.95;1.75;;;24.80;66.00;;;;;;5052671;28;20178;-57
2023/08/20 12:33:20;;;;;;;3.33;1.60;;;24.90;66.10;;;;;;5051447;28;20236;-58
2023/08/20 12:35:46;;;;;;;3.25;1.80;;;24.90;66.00;;;;;;5052295;28;20210;-56
2023/08/20 12:38:12;;;;;;;3.13;1.50;;;24.90;66.10;;;;;;5056058;28;20190;-58
2023/08/20 12:40:37;;;;;;;4.88;1.50;;;24.90;66.90;;;;;;5051371;28;20659;-58
2023/08/20 12:43:03;;;;;;;3.60;1.60;;;24.90;66.00;;;;;;5051903;28;20683;-58
2023/08/20 12:45:29;;;;;;;8.20;1.98;;;24.90;66.00;;;;;;5051953;28;20230;-58